Hayward, Wisconsin
Current Conditions -  °F | °C
As of 12:53 AM on Friday 19 Dec 2014 (Local Time) from KHYR Reporting Station
Overcast Overcast  
Wind Chill: 14°   Ceiling: 700
Heat Index: 22°   Visibility: 10mi
Dew Point: 19°   Wind: 6mph
Humidity: 89%   Direction: 150°SSE
Pressure: 30.24"   Gusts: NA
Location:  46.01°N, 91.48°W
Report Text: KHYR 190653Z AUTO 15005KT 10SM OVC007 M06/M07 A3024 RMK AO2 SLP263 T10561072
Loading
Personal Weather Stations






























Interactive Weather Map New forecast layout! Learn more

10-Day Weather Forecast

Advertisements
Track Severe Weather on mobile